Detailed Flight Report of Ismail DUMAN ;
Number CXD029 
Departure Aerodrome LTFJ 
Arrival Aerodrome LTBS

Map generated by the Great Circle Mapper - copyright © Karl L. Swartz.

Pilot In Command CXD029 : Ismail Duman
Aircraft A320 / TC-MCK
Date Of Flight 2019-11-01
Departure Time 13:33 UTC
Arrival Time 14:46 UTC
Block Time 01:13
Distance 305 Nm.
Used Fuel 6,020 Lbs.
   
Detailed Flight Log [2019/11/01 13:40:00]
Flight IATA:C001
Pilot Number:029
Company ICAO:CXD
Aircraft Type:A320
Cargo:2345 Lb
Aircraft Registration:TC-MCK
Departing Airport: LTFJ
Destination Airport: LTBS
Alternate Airport:LTAI
Online: VATSIM
Route:OXUK UT409 NUMTI UT241 DEN UW87 ATSAL UT44 KAVAK
Flight Level:FL300
No pause
13:40 Zero fuel Weight: 133417 Lbs, Fuel Weight: 13417 Lbs
13:40 VATSIM:LTFJ 312150Z 02006KT 9999 SCT026 BKN080 15/14 Q1016 BECMG TL2300 04020G30KT BKN009 BKN025
13:40 VATSIM:LTBS 312150Z 09007KT 9999 -SHRA FEW015CB SCT030 BKN100 17/14 Q1015 NOSIG
13:48 Slew ON
13:49 Slew OFF
13:50 Parking Brakes off
14:04 VR= 171 Knots
14:05 V2= 175 Knots
14:05 Take-off
14:05 Take off Weight: 146270 Lbs
14:05 Wind: 350º @ 016 Knots Heading: 060º
14:05 POS N40º 54´ 01´´ E029º 18´ 50´´
14:05 N11 85 N12 85
14:05 Flaps:2 at 175 Knots
14:05 Gear Up: 177 Knots
14:06 Flaps:Up at 190
Knots
14:20 Wind:269º@043 Knots Heading: 215º Ground Speed: 432 Knots Altitude 27457 ft
14:21 TOC
14:21 Fuel Weight: 9844 Lb
14:35 Wind:255º@039 Knots Heading: 179º Ground Speed: 436 Knots Altitude 30019 ft
14:36 TOD
14:36 Fuel Weight: 8453 Lb
14:50 Wind:268º@008 Knots Heading: 168º Ground Speed: 241 Knots Altitude 6007 ft
14:51 Flaps:1 at 202 Knots
14:53 Flaps:1 F at 190 Knots
14:53 Flaps:2 at 189 Knots
14:53 Flaps:Full at 188 Knots
14:53 Flaps: at 187 Knots
14:53 Flaps: at 157 Knots
14:53 Flaps: at 149 Knots
14:54 Gear Down: 139 Knots
14:57 TouchDown:Rate -399 ft/min Speed: 144 Knots
14:58 VATSIM:LTBS 312320Z 35008KT 9999 FEW015CB SCT030 BKN080 18/15 Q1014 RESHRA TEMPO FM0000 4000 TSRA RMK RWY19 30006KT
14:58 Land
14:58 Wind:350º@008 Knots
14:58 Heading: 011º
14:58 Flight Duration: 00:53
14:58 Landing Weight: 140984 Lbs
14:58 POS N36º 43´ 00´´ E028º
47´ 37´´
15:03 Parking brakes on
15:03 Block to Block Duration: 01:13
15:03 Final Fuel: 7396 Lbls
15:03 Spent Fuel: 6020 Lbls
15:03 Flight Length: 305 NM
15:03 TOD Land Length: 100 NM

Text Link of Flight Log http://www.candanair.net/acars/logs/CXD02920191101134000.txt
   

[ Back ]